createdAt,value
2019-04-22T00:01:50.058Z,101470.66
2019-04-22T00:04:29.956Z,101469.86
2019-04-22T00:07:11.753Z,101470.59
2019-04-22T00:09:45.739Z,101471.08
2019-04-22T00:12:13.782Z,101467.84
2019-04-22T00:14:35.116Z,101462.05
2019-04-22T00:17:18.516Z,101462.34
2019-04-22T00:19:47.097Z,101455.77
2019-04-22T00:22:15.342Z,101455.58
2019-04-22T00:24:46.186Z,101451.32
2019-04-22T00:27:13.756Z,101457.30
2019-04-22T00:30:02.420Z,101457.91
2019-04-22T00:32:35.421Z,101453.05
2019-04-22T00:35:03.887Z,101452.25
2019-04-22T00:37:35.739Z,101445.83
2019-04-22T00:40:07.145Z,101445.62
2019-04-22T00:42:36.988Z,101444.93
2019-04-22T00:45:08.071Z,101438.75
2019-04-22T00:47:32.417Z,101431.98
2019-04-22T00:50:19.075Z,101435.52
2019-04-22T00:52:33.958Z,101427.38
2019-04-22T00:55:05.545Z,101411.12
2019-04-22T00:57:32.385Z,101421.28
2019-04-22T01:00:07.259Z,101405.56
2019-04-22T01:02:37.574Z,101406.25
2019-04-22T01:05:07.720Z,101402.30
2019-04-22T01:07:32.170Z,101407.98
2019-04-22T01:10:07.229Z,101397.91
2019-04-22T01:12:32.973Z,101395.49
2019-04-22T01:15:01.072Z,101404.63
2019-04-22T01:17:35.930Z,101411.40
2019-04-22T01:20:05.092Z,101407.88
2019-04-22T01:22:26.484Z,101399.64
2019-04-22T01:25:02.465Z,101402.02
2019-04-22T01:27:26.315Z,101400.91
2019-04-22T01:29:54.052Z,101397.30
2019-04-22T01:32:18.641Z,101396.22
2019-04-22T01:34:55.286Z,101394.50
2019-04-22T01:37:29.097Z,101400.98
2019-04-22T01:40:04.478Z,101396.53
2019-04-22T01:42:45.357Z,101399.16
2019-04-22T01:45:06.943Z,101400.64
2019-04-22T01:47:39.551Z,101402.24
2019-04-22T01:50:06.213Z,101395.42
2019-04-22T01:52:41.525Z,101402.94
2019-04-22T01:55:10.600Z,101406.42
2019-04-22T01:57:35.013Z,101401.05
2019-04-22T01:59:58.701Z,101384.30
2019-04-22T02:02:39.932Z,101390.23
2019-04-22T02:05:13.994Z,101394.00
2019-04-22T02:07:35.521Z,101395.28
2019-04-22T02:10:04.240Z,101380.70
2019-04-22T02:12:35.446Z,101388.28
2019-04-22T02:15:09.259Z,101388.46
2019-04-22T02:17:38.283Z,101383.69
2019-04-22T02:20:12.993Z,101387.08
2019-04-22T02:23:00.531Z,101385.91
2019-04-22T02:25:09.320Z,101385.91
2019-04-22T02:27:46.037Z,101390.16
2019-04-22T02:30:05.996Z,101393.84
2019-04-22T02:33:06.018Z,101394.23
2019-04-22T02:35:23.774Z,101390.89
2019-04-22T02:37:35.823Z,101389.59
2019-04-22T02:40:21.412Z,101388.53
2019-04-22T02:42:43.959Z,101381.91
2019-04-22T02:45:07.117Z,101380.63
2019-04-22T02:47:42.093Z,101381.55
2019-04-22T02:50:08.939Z,101377.38
2019-04-22T02:57:40.069Z,101369.50
2019-04-22T03:02:54.660Z,101359.13
2019-04-22T03:05:21.629Z,101355.91
2019-04-22T03:07:55.960Z,101358.28
2019-04-22T03:10:37.490Z,101354.53
2019-04-22T03:15:13.591Z,101354.47
2019-04-22T03:17:47.336Z,101343.80
2019-04-22T03:23:10.050Z,101349.88
2019-04-22T03:25:43.813Z,101346.30
2019-04-22T03:27:40.158Z,101343.88
2019-04-22T03:33:05.875Z,101337.58
2019-04-22T03:45:26.220Z,101336.53
2019-04-22T03:47:54.145Z,101330.39
2019-04-22T03:50:24.337Z,101336.61
2019-04-22T03:52:47.035Z,101342.81
2019-04-22T03:55:15.124Z,101343.57
2019-04-22T04:02:47.446Z,101359.53
2019-04-22T04:05:24.355Z,101358.63
2019-04-22T04:10:35.520Z,101358.94
2019-04-22T04:12:53.354Z,101353.91
2019-04-22T04:20:21.805Z,101345.80
2019-04-22T04:30:19.016Z,101349.36
2019-04-22T04:32:57.030Z,101351.24
2019-04-22T04:35:23.943Z,101345.59
2019-04-22T04:37:55.989Z,101342.69
2019-04-22T04:40:21.241Z,101345.14
2019-04-22T04:42:45.984Z,101342.69
2019-04-22T04:50:15.842Z,101345.98
2019-04-22T04:53:09.863Z,101345.89
2019-04-22T05:02:52.970Z,101345.09
2019-04-22T05:12:53.018Z,101323.38
2019-04-22T05:17:47.267Z,101311.83
2019-04-22T05:22:43.102Z,101309.60
2019-04-22T05:25:14.635Z,101304.09
2019-04-22T05:27:40.030Z,101303.34
2019-04-22T05:37:45.852Z,101297.48
2019-04-22T05:40:16.308Z,101301.00
2019-04-22T05:42:40.372Z,101303.45
2019-04-22T05:45:13.296Z,101308.44
2019-04-22T05:47:39.965Z,101304.56
2019-04-22T05:50:09.467Z,101303.26
2019-04-22T05:52:40.752Z,101305.67
2019-04-22T05:55:14.376Z,101307.63
2019-04-22T05:57:47.176Z,101302.91
2019-04-22T06:00:14.365Z,101305.69
2019-04-22T06:07:38.485Z,101307.22
2019-04-22T06:10:24.432Z,101314.24
2019-04-22T06:12:40.175Z,101314.01
2019-04-22T06:15:15.327Z,101313.38
2019-04-22T06:17:49.267Z,101315.45
2019-04-22T06:20:15.907Z,101319.43
2019-04-22T06:22:50.424Z,101325.45
2019-04-22T06:25:23.275Z,101329.66
2019-04-22T06:27:49.600Z,101329.91
2019-04-22T06:30:19.126Z,101323.16
2019-04-22T06:32:53.414Z,101329.56
2019-04-22T06:35:23.605Z,101329.39
2019-04-22T06:37:55.245Z,101334.02
2019-04-22T06:40:24.754Z,101336.20
2019-04-22T06:42:51.860Z,101333.60
2019-04-22T06:45:18.897Z,101327.61
2019-04-22T06:50:18.805Z,101336.34
2019-04-22T06:52:49.662Z,101333.73
2019-04-22T06:55:16.411Z,101335.13
2019-04-22T06:57:44.997Z,101336.75
2019-04-22T07:00:21.905Z,101327.07
2019-04-22T07:03:10.219Z,101335.55
2019-04-22T07:05:19.739Z,101330.86
2019-04-22T07:07:44.959Z,101335.64
2019-04-22T07:13:02.221Z,101331.33
2019-04-22T07:15:23.258Z,101333.56
2019-04-22T07:17:50.780Z,101329.55
2019-04-22T07:20:17.796Z,101327.26
2019-04-22T07:23:05.390Z,101330.41
2019-04-22T07:25:32.732Z,101327.20
2019-04-22T07:27:50.605Z,101338.13
2019-04-22T07:30:21.916Z,101339.39
2019-04-22T07:33:07.649Z,101333.83
2019-04-22T07:35:23.922Z,101335.57
2019-04-22T07:37:43.541Z,101332.98
2019-04-22T07:40:16.802Z,101334.11
2019-04-22T07:42:41.808Z,101341.49
2019-04-22T07:45:15.556Z,101331.86
2019-04-22T07:50:25.407Z,101326.93
2019-04-22T07:52:47.014Z,101330.48
2019-04-22T07:55:13.418Z,101325.27
2019-04-22T07:57:44.370Z,101323.20
2019-04-22T08:00:15.731Z,101320.83
2019-04-22T08:05:12.520Z,101315.58
2019-04-22T08:08:07.235Z,101316.20
2019-04-22T08:10:24.424Z,101316.69
2019-04-22T08:12:47.057Z,101308.84
2019-04-22T08:15:12.642Z,101322.00
2019-04-22T08:17:55.096Z,101314.14
2019-04-22T08:20:15.591Z,101317.63
2019-04-22T08:22:56.049Z,101320.94
2019-04-22T08:25:14.440Z,101319.36
2019-04-22T08:27:46.844Z,101314.50
2019-04-22T08:30:23.481Z,101310.33
2019-04-22T08:32:48.811Z,101314.08
2019-04-22T08:35:20.270Z,101319.84
2019-04-22T08:38:02.583Z,101321.05
2019-04-22T08:40:21.053Z,101311.41
2019-04-22T08:42:58.382Z,101310.56
2019-04-22T08:45:22.726Z,101314.72
2019-04-22T08:47:42.355Z,101314.30
2019-04-22T08:50:14.092Z,101314.08
2019-04-22T08:52:48.362Z,101310.17
2019-04-22T08:55:20.982Z,101308.67
2019-04-22T08:58:07.226Z,101303.98
2019-04-22T09:00:16.540Z,101312.06
2019-04-22T09:02:46.767Z,101306.27
2019-04-22T09:05:31.036Z,101302.97
2019-04-22T09:07:50.309Z,101308.78
2019-04-22T09:10:18.901Z,101303.61
2019-04-22T09:15:21.890Z,101289.80
2019-04-22T09:17:47.896Z,101299.61
2019-04-22T09:20:20.584Z,101296.27
2019-04-22T09:22:47.102Z,101297.72
2019-04-22T09:25:17.130Z,101288.85
2019-04-22T09:27:49.586Z,101287.41
2019-04-22T09:30:23.583Z,101288.98
2019-04-22T09:32:44.945Z,101289.47
2019-04-22T09:35:16.182Z,101292.84
2019-04-22T09:37:48.130Z,101287.44
2019-04-22T09:40:15.271Z,101274.78
2019-04-22T09:45:17.960Z,101270.36
2019-04-22T09:47:53.761Z,101269.52
2019-04-22T09:50:22.623Z,101268.65
2019-04-22T09:52:50.911Z,101267.80
2019-04-22T09:55:16.721Z,101270.70
2019-04-22T09:57:46.960Z,101277.44
2019-04-22T10:00:13.954Z,101265.77
2019-04-22T10:02:49.039Z,101263.67
2019-04-22T10:07:44.900Z,101257.20
2019-04-22T10:10:15.052Z,101258.11
2019-04-22T10:12:42.287Z,101257.05
2019-04-22T10:15:13.807Z,101253.19
2019-04-22T10:17:47.444Z,101245.28
2019-04-22T10:20:24.872Z,101240.85
2019-04-22T10:22:46.480Z,101245.06
2019-04-22T10:25:21.430Z,101230.58
2019-04-22T10:27:46.242Z,101235.67
2019-04-22T10:30:39.166Z,101236.63
2019-04-22T10:32:46.298Z,101230.78
2019-04-22T10:35:13.187Z,101236.69
2019-04-22T10:37:38.613Z,101225.87
2019-04-22T10:40:11.456Z,101226.31
2019-04-22T10:42:43.374Z,101226.80
2019-04-22T10:45:12.501Z,101215.73
2019-04-22T10:47:42.254Z,101217.58
2019-04-22T10:50:12.365Z,101208.47
2019-04-22T10:52:41.455Z,101207.64
2019-04-22T10:55:11.682Z,101203.41
2019-04-22T10:57:41.008Z,101197.42
2019-04-22T11:00:11.371Z,101198.47
2019-04-22T11:02:39.739Z,101201.61
2019-04-22T11:05:10.235Z,101196.88
2019-04-22T11:07:44.000Z,101194.33
2019-04-22T11:10:27.399Z,101194.08
2019-04-22T11:12:39.543Z,101184.67
2019-04-22T11:15:09.809Z,101185.69
2019-04-22T11:17:39.621Z,101186.05
2019-04-22T11:20:08.006Z,101174.73
2019-04-22T11:22:37.377Z,101174.08
2019-04-22T11:25:07.705Z,101175.02
2019-04-22T11:27:37.134Z,101176.46
2019-04-22T11:30:07.974Z,101167.61
2019-04-22T11:32:37.943Z,101163.27
2019-04-22T11:35:09.754Z,101161.11
2019-04-22T11:37:38.726Z,101158.78
2019-04-22T11:40:19.215Z,101153.83
2019-04-22T11:42:38.519Z,101150.27
2019-04-22T11:45:08.932Z,101150.72
2019-04-22T11:47:37.506Z,101148.87
2019-04-22T11:50:08.051Z,101146.70
2019-04-22T11:52:37.228Z,101139.18
2019-04-22T11:55:10.526Z,101137.87
2019-04-22T11:57:39.241Z,101138.71
2019-04-22T12:00:10.192Z,101132.52
2019-04-22T12:02:38.823Z,101139.05
2019-04-22T12:05:10.138Z,101135.98
2019-04-22T12:07:40.180Z,101129.04
2019-04-22T12:10:19.181Z,101137.97
2019-04-22T12:12:39.697Z,101122.08
2019-04-22T12:15:08.580Z,101121.67
2019-04-22T12:17:38.074Z,101105.23
2019-04-22T12:20:10.474Z,101107.16
2019-04-22T12:22:38.888Z,101109.20
2019-04-22T12:25:10.392Z,101113.05
2019-04-22T12:27:39.323Z,101108.55
2019-04-22T12:30:12.656Z,101095.59
2019-04-22T12:32:41.230Z,101112.50
2019-04-22T12:35:09.611Z,101086.47
2019-04-22T12:37:47.058Z,101081.53
2019-04-22T12:40:10.774Z,101089.80
2019-04-22T12:42:39.388Z,101078.94
2019-04-22T12:45:09.932Z,101078.73
2019-04-22T12:47:40.137Z,101072.16
2019-04-22T12:50:19.940Z,101073.08
2019-04-22T12:52:50.489Z,101061.58
2019-04-22T12:55:12.075Z,101054.41
2019-04-22T12:57:40.892Z,101064.55
2019-04-22T13:00:11.601Z,101054.04
2019-04-22T13:02:40.913Z,101052.98
2019-04-22T13:05:12.322Z,101062.30
2019-04-22T13:07:41.833Z,101047.27
2019-04-22T13:10:13.633Z,101047.19
2019-04-22T13:12:42.775Z,101051.11
2019-04-22T13:15:16.068Z,101040.64
2019-04-22T13:17:44.435Z,101043.61
2019-04-22T13:20:16.417Z,101038.79
2019-04-22T13:22:45.042Z,101037.88
2019-04-22T13:25:13.672Z,101035.99
2019-04-22T13:27:42.870Z,101027.84
2019-04-22T13:30:14.526Z,101020.10
2019-04-22T13:32:43.033Z,101020.06
2019-04-22T13:35:12.817Z,101028.16
2019-04-22T13:37:43.336Z,101015.22
2019-04-22T13:40:12.803Z,101014.31
2019-04-22T13:42:41.134Z,101009.20
2019-04-22T13:45:11.589Z,101005.17
2019-04-22T13:47:56.148Z,101008.53
2019-04-22T13:51:36.300Z,101009.38
2019-04-22T13:53:18.296Z,101004.31
2019-04-22T13:55:46.785Z,101006.55
2019-04-22T13:57:57.410Z,100992.48
2019-04-22T14:00:16.319Z,100996.55
2019-04-22T14:03:02.664Z,100993.64
2019-04-22T14:05:32.935Z,100999.11
2019-04-22T14:08:04.257Z,100998.70
2019-04-22T14:10:32.154Z,100995.23
2019-04-22T14:13:01.997Z,100978.53
2019-04-22T14:15:30.244Z,101001.20
2019-04-22T14:17:58.849Z,100994.47
2019-04-22T14:20:30.541Z,100985.25
2019-04-22T14:22:58.677Z,100990.28
2019-04-22T14:25:28.334Z,100985.95
2019-04-22T14:28:03.607Z,100977.94
2019-04-22T14:30:28.604Z,100977.66
2019-04-22T14:32:58.031Z,100981.09
2019-04-22T14:35:27.095Z,100971.33
2019-04-22T14:37:56.422Z,100980.25
2019-04-22T14:40:28.026Z,100967.03
2019-04-22T14:43:13.220Z,100978.47
2019-04-22T14:46:01.617Z,100969.78
2019-04-22T14:48:22.791Z,100975.59
2019-04-22T14:50:46.930Z,100968.52
2019-04-22T14:53:14.420Z,100967.97
2019-04-22T14:55:28.732Z,100962.66
2019-04-22T14:57:55.088Z,100951.20
2019-04-22T15:00:26.308Z,100954.37
2019-04-22T15:02:55.475Z,100958.30
2019-04-22T15:05:23.940Z,100940.88
2019-04-22T15:07:53.030Z,100944.47
2019-04-22T15:10:22.201Z,100937.62
2019-04-22T15:12:53.882Z,100933.67
2019-04-22T15:15:40.480Z,100926.62
2019-04-22T15:18:23.930Z,100931.03
2019-04-22T15:21:09.099Z,100932.64
2019-04-22T15:23:38.485Z,100933.33
2019-04-22T15:26:08.421Z,100930.71
2019-04-22T15:28:37.500Z,100935.36
2019-04-22T15:31:05.867Z,100930.64
2019-04-22T15:33:35.260Z,100931.00
2019-04-22T15:36:03.713Z,100919.25
2019-04-22T15:38:32.254Z,100929.80
2019-04-22T15:41:00.978Z,100917.52
2019-04-22T15:43:32.942Z,100927.09
2019-04-22T15:46:02.352Z,100914.77
2019-04-22T15:48:32.225Z,100922.74
2019-04-22T15:51:00.505Z,100914.34
2019-04-22T15:53:29.614Z,100916.17
2019-04-22T15:55:58.811Z,100910.53
2019-04-22T15:58:28.138Z,100904.66
2019-04-22T16:01:10.318Z,100910.92
2019-04-22T16:03:26.898Z,100909.47
2019-04-22T16:05:55.224Z,100911.09
2019-04-22T16:08:24.707Z,100911.80
2019-04-22T16:10:53.702Z,100905.92
2019-04-22T16:13:26.463Z,100916.78
2019-04-22T16:15:52.343Z,100905.20
2019-04-22T16:18:22.241Z,100898.03
2019-04-22T16:20:52.293Z,100907.09
2019-04-22T16:23:25.718Z,100905.69
2019-04-22T16:25:55.368Z,100897.66
2019-04-22T16:28:24.978Z,100907.42
2019-04-22T16:30:53.384Z,100912.55
2019-04-22T16:33:21.787Z,100907.86
2019-04-22T16:35:50.884Z,100905.70
2019-04-22T16:38:19.308Z,100916.36
2019-04-22T16:40:48.586Z,100907.73
2019-04-22T16:43:17.032Z,100909.06
2019-04-22T16:45:45.560Z,100904.55
2019-04-22T16:48:13.782Z,100905.91
2019-04-22T16:50:43.640Z,100913.59
2019-04-22T16:53:13.802Z,100907.44
2019-04-22T16:55:42.004Z,100909.50
2019-04-22T16:58:12.709Z,100902.85
2019-04-22T17:00:42.644Z,100903.73
2019-04-22T17:03:29.108Z,100901.11
2019-04-22T17:06:08.019Z,100902.41
2019-04-22T17:08:37.025Z,100902.33
2019-04-22T17:11:05.466Z,100905.69
2019-04-22T17:13:34.709Z,100910.91
2019-04-22T17:16:04.881Z,100905.80
2019-04-22T17:18:33.175Z,100900.95
2019-04-22T17:21:04.676Z,100911.69
2019-04-22T17:23:31.772Z,100906.06
2019-04-22T17:26:00.808Z,100916.08
2019-04-22T17:28:29.237Z,100910.25
2019-04-22T17:30:57.675Z,100903.89
2019-04-22T17:33:26.413Z,100911.15
2019-04-22T17:35:54.955Z,100910.91
2019-04-22T17:38:31.061Z,100918.94
2019-04-22T17:41:10.534Z,100915.83
2019-04-22T17:43:53.785Z,100915.83
2019-04-22T17:46:19.327Z,100911.53
2019-04-22T17:49:06.040Z,100918.86
2019-04-22T17:51:31.517Z,100925.83
2019-04-22T17:54:02.586Z,100918.50
2019-04-22T17:56:37.527Z,100915.41
2019-04-22T17:59:04.027Z,100919.61
2019-04-22T18:01:32.620Z,100924.30
2019-04-22T18:03:52.884Z,100925.97
2019-04-22T18:06:44.771Z,100925.16
2019-04-22T18:09:05.317Z,100927.92
2019-04-22T18:14:25.454Z,100922.75
2019-04-22T18:16:37.252Z,100930.42
2019-04-22T18:19:08.997Z,100929.34
2019-04-22T18:21:32.087Z,100936.79
2019-04-22T18:24:00.315Z,100931.63
2019-04-22T18:26:32.250Z,100927.40
2019-04-22T18:29:07.390Z,100933.96
2019-04-22T18:31:29.478Z,100935.23
2019-04-22T18:34:00.459Z,100933.77
2019-04-22T18:36:36.077Z,100936.31
2019-04-22T18:39:10.705Z,100940.02
2019-04-22T18:41:34.201Z,100935.19
2019-04-22T18:44:11.580Z,100934.34
2019-04-22T18:46:36.599Z,100936.48
2019-04-22T18:49:08.432Z,100937.91
2019-04-22T18:51:49.413Z,100944.73
2019-04-22T18:54:31.072Z,100941.91
2019-04-22T18:57:02.567Z,100940.59
2019-04-22T18:59:21.301Z,100938.87
2019-04-22T19:01:43.898Z,100945.20
2019-04-22T19:04:19.024Z,100945.25
2019-04-22T19:07:01.754Z,100946.78
2019-04-22T19:09:38.648Z,100949.86
2019-04-22T19:12:15.195Z,100947.17
2019-04-22T19:14:40.539Z,100941.97
2019-04-22T19:17:12.223Z,100948.45
2019-04-22T19:19:43.679Z,100953.47
2019-04-22T19:22:06.650Z,100970.95
2019-04-22T19:24:30.408Z,100968.34
2019-04-22T19:27:02.946Z,100968.19
2019-04-22T19:29:39.246Z,100966.88
2019-04-22T19:32:01.805Z,100977.15
2019-04-22T19:34:32.043Z,100973.13
2019-04-22T19:37:05.525Z,100976.02
2019-04-22T19:39:35.940Z,100967.55
2019-04-22T19:42:09.786Z,100983.82
2019-04-22T19:44:41.152Z,100981.45
2019-04-22T19:47:21.180Z,100985.14
2019-04-22T19:49:48.096Z,100995.28
2019-04-22T19:52:11.372Z,100991.83
2019-04-22T19:54:40.858Z,100987.77
2019-04-22T19:56:59.088Z,100993.25
2019-04-22T19:59:32.361Z,100993.23
2019-04-22T20:02:23.576Z,100989.64
2019-04-22T20:04:59.340Z,100989.01
2019-04-22T20:07:28.089Z,100997.92
2019-04-22T20:10:03.254Z,100992.28
2019-04-22T20:12:23.525Z,100995.38
2019-04-22T20:14:55.136Z,100991.59
2019-04-22T20:17:41.529Z,101005.97
2019-04-22T20:20:04.669Z,100989.02
2019-04-22T20:22:30.272Z,100984.12
2019-04-22T20:24:47.186Z,101003.23
2019-04-22T20:27:30.101Z,101002.13
2019-04-22T20:29:58.123Z,101005.00
2019-04-22T20:32:26.317Z,100999.16
2019-04-22T20:35:02.553Z,101013.71
2019-04-22T20:37:35.663Z,101009.19
2019-04-22T20:40:00.476Z,101004.73
2019-04-22T20:42:48.959Z,101004.66
2019-04-22T20:44:58.518Z,101000.84
2019-04-22T20:47:23.974Z,101000.38
2019-04-22T20:50:01.970Z,100997.57
2019-04-22T20:52:35.383Z,101002.86
2019-04-22T20:54:55.988Z,101005.42
2019-04-22T20:57:31.724Z,100998.22
2019-04-22T20:59:55.635Z,100983.45
2019-04-22T21:02:24.107Z,100989.28
2019-04-22T21:04:50.363Z,100995.14
2019-04-22T21:07:23.817Z,100990.39
2019-04-22T21:09:57.960Z,100994.25
2019-04-22T21:12:20.638Z,100984.48
2019-04-22T21:15:05.555Z,100992.77
2019-04-22T21:17:33.750Z,100996.16
2019-04-22T21:20:10.448Z,100986.91
2019-04-22T21:22:33.067Z,100986.25
2019-04-22T21:24:53.561Z,100988.61
2019-04-22T21:27:35.463Z,100980.16
2019-04-22T21:29:52.030Z,100982.89
2019-04-22T21:32:31.287Z,100977.48
2019-04-22T21:35:22.461Z,100986.79
2019-04-22T21:37:33.017Z,100983.91
2019-04-22T21:39:51.911Z,100981.19
2019-04-22T21:42:26.474Z,100970.78
2019-04-22T21:44:56.944Z,100979.31
2019-04-22T21:47:35.274Z,100979.78
2019-04-22T21:50:18.027Z,100968.71
2019-04-22T21:52:28.023Z,100976.34
2019-04-22T21:55:08.697Z,100961.42
2019-04-22T21:57:35.586Z,100963.86
2019-04-22T22:00:09.946Z,100951.87
2019-04-22T22:02:31.234Z,100951.87
2019-04-22T22:04:57.580Z,100959.75
2019-04-22T22:07:17.238Z,100962.25
2019-04-22T22:09:59.731Z,100963.40
2019-04-22T22:12:36.183Z,100959.16
2019-04-22T22:15:05.490Z,100946.89
2019-04-22T22:17:31.043Z,100944.55
2019-04-22T22:20:01.959Z,100939.02
2019-04-22T22:25:04.308Z,100933.48
2019-04-22T22:27:30.187Z,100940.61
2019-04-22T22:30:18.970Z,100930.87
2019-04-22T22:32:35.411Z,100936.92
2019-04-22T22:35:02.988Z,100930.87
2019-04-22T22:37:21.920Z,100921.20
2019-04-22T22:39:51.258Z,100918.77
2019-04-22T22:42:21.445Z,100920.17
2019-04-22T22:44:44.865Z,100914.08
2019-04-22T22:47:34.243Z,100901.80
2019-04-22T22:50:05.892Z,100906.30
2019-04-22T22:52:51.734Z,100911.63
2019-04-22T22:55:05.142Z,100901.59
2019-04-22T22:57:35.173Z,100903.02
2019-04-22T23:00:01.030Z,100896.35
2019-04-22T23:02:28.393Z,100891.02
2019-04-22T23:05:05.855Z,100890.56
2019-04-22T23:07:37.443Z,100891.75
2019-04-22T23:10:05.054Z,100883.32
2019-04-22T23:12:46.573Z,100881.55
2019-04-22T23:14:59.020Z,100875.83
2019-04-22T23:17:16.640Z,100882.48
2019-04-22T23:19:47.571Z,100872.36
2019-04-22T23:22:23.414Z,100871.61
2019-04-22T23:24:59.885Z,100866.93
2019-04-22T23:27:34.164Z,100873.95
2019-04-22T23:30:04.068Z,100868.53
2019-04-22T23:32:31.887Z,100862.91
2019-04-22T23:35:14.699Z,100877.62
2019-04-22T23:37:46.717Z,100862.62
2019-04-22T23:40:25.962Z,100861.77
2019-04-22T23:42:44.855Z,100859.15
2019-04-22T23:45:13.909Z,100861.03
2019-04-22T23:47:35.605Z,100854.19
2019-04-22T23:50:14.155Z,100855.88
2019-04-22T23:52:48.087Z,100858.59
2019-04-22T23:55:17.736Z,100862.06
2019-04-22T23:57:47.826Z,100859.44
